createdAt,value
2023-04-08T00:00:20.673Z,1.88
2023-04-08T00:05:24.786Z,2.02
2023-04-08T00:10:27.413Z,2.01
2023-04-08T00:15:31.066Z,1.96
2023-04-08T00:20:35.419Z,1.93
2023-04-08T00:25:38.007Z,1.81
2023-04-08T00:30:40.673Z,1.66
2023-04-08T00:35:44.653Z,1.63
2023-04-08T00:40:47.334Z,1.51
2023-04-08T00:45:50.309Z,1.51
2023-04-08T00:50:54.383Z,1.53
2023-04-08T00:55:57.064Z,1.51
2023-04-08T01:01:06.713Z,1.55
2023-04-08T01:06:16.698Z,1.46
2023-04-08T01:11:21.379Z,1.39
2023-04-08T01:16:27.200Z,1.36
2023-04-08T01:21:31.317Z,1.25
2023-04-08T01:26:36.456Z,1.22
2023-04-08T01:31:40.401Z,1.09
2023-04-08T01:36:45.485Z,1.00
2023-04-08T01:41:50.006Z,0.93
2023-04-08T01:46:54.118Z,0.77
2023-04-08T01:51:59.712Z,0.67
2023-04-08T01:57:09.705Z,0.64
2023-04-08T02:02:14.159Z,0.57
2023-04-08T02:07:17.959Z,0.55
2023-04-08T02:12:21.878Z,0.49
2023-04-08T02:17:30.958Z,0.40
2023-04-08T02:22:39.980Z,0.35
2023-04-08T02:27:45.428Z,0.33
2023-04-08T02:32:48.770Z,0.29
2023-04-08T02:37:51.615Z,0.21
2023-04-08T02:42:56.506Z,0.21
2023-04-08T02:48:00.743Z,0.12
2023-04-08T02:53:03.464Z,0.04
2023-04-08T02:58:07.392Z,0.02
2023-04-08T03:03:10.086Z,-0.02
2023-04-08T03:08:12.740Z,-0.14
2023-04-08T03:13:16.889Z,-0.27
2023-04-08T03:18:19.462Z,-0.37
2023-04-08T03:23:21.990Z,-0.40
2023-04-08T03:28:25.879Z,-0.44
2023-04-08T03:33:28.553Z,-0.51
2023-04-08T03:38:31.143Z,-0.54
2023-04-08T03:43:36.757Z,-0.61
2023-04-08T03:48:40.489Z,-0.64
2023-04-08T03:53:43.017Z,-0.64
2023-04-08T03:58:47.978Z,-0.63
2023-04-08T04:03:50.775Z,-0.65
2023-04-08T04:08:54.789Z,-0.65
2023-04-08T04:13:58.656Z,-0.66
2023-04-08T04:19:01.342Z,-0.72
2023-04-08T04:24:04.024Z,-0.73
2023-04-08T04:29:07.893Z,-0.74
2023-04-08T04:34:10.413Z,-0.72
2023-04-08T04:39:13.017Z,-0.74
2023-04-08T04:44:17.004Z,-0.70
2023-04-08T04:49:19.584Z,-0.72
2023-04-08T04:54:22.217Z,-0.69
2023-04-08T04:59:26.239Z,-0.68
2023-04-08T05:04:28.814Z,-0.66
2023-04-08T05:09:31.641Z,-0.62
2023-04-08T05:14:35.751Z,-0.55
2023-04-08T05:19:38.278Z,-0.43
2023-04-08T05:24:41.007Z,-0.19
2023-04-08T05:29:44.940Z,0.15
2023-04-08T05:34:47.509Z,0.46
2023-04-08T05:39:50.050Z,0.77
2023-04-08T05:44:53.928Z,1.01
2023-04-08T05:49:56.754Z,1.22
2023-04-08T05:54:59.305Z,1.42
2023-04-08T06:00:03.367Z,1.59
2023-04-08T06:05:06.768Z,1.78
2023-04-08T06:10:10.144Z,2.01
2023-04-08T06:15:14.048Z,2.27
2023-04-08T06:20:16.616Z,2.63
2023-04-08T06:25:19.386Z,2.98
2023-04-08T06:30:23.677Z,3.39
2023-04-08T06:35:26.273Z,3.90
2023-04-08T06:40:29.000Z,4.74
2023-04-08T06:45:32.988Z,6.11
2023-04-08T06:50:35.974Z,8.32
2023-04-08T06:55:38.576Z,9.04
2023-04-08T07:00:43.099Z,7.69
2023-04-08T07:05:45.711Z,6.44
2023-04-08T07:10:48.296Z,6.16
2023-04-08T07:15:53.454Z,6.12
2023-04-08T07:20:56.495Z,6.12
2023-04-08T07:26:03.478Z,6.34
2023-04-08T07:31:16.041Z,6.28
2023-04-08T07:36:18.785Z,6.44
2023-04-08T07:41:21.660Z,6.46
2023-04-08T07:46:25.676Z,6.60
2023-04-08T07:51:29.066Z,6.84
2023-04-08T07:56:31.681Z,7.18
2023-04-08T08:01:35.983Z,7.50
2023-04-08T08:06:38.588Z,7.81
2023-04-08T08:11:41.280Z,7.77
2023-04-08T08:16:45.553Z,8.00
2023-04-08T08:21:48.207Z,8.28
2023-04-08T08:26:51.142Z,8.62
2023-04-08T08:31:55.119Z,9.12
2023-04-08T08:36:58.375Z,10.21
2023-04-08T08:42:01.374Z,11.77
2023-04-08T08:47:06.410Z,13.81
2023-04-08T08:52:09.277Z,15.55
2023-04-08T08:57:18.574Z,15.46
2023-04-08T09:02:29.028Z,14.23
2023-04-08T09:07:37.380Z,12.28
2023-04-08T09:12:55.398Z,11.75
2023-04-08T09:17:59.597Z,12.82
2023-04-08T09:23:03.591Z,13.65
2023-04-08T09:28:06.559Z,15.15
2023-04-08T09:33:10.720Z,16.10
2023-04-08T09:38:13.279Z,16.64
2023-04-08T09:43:19.327Z,16.32
2023-04-08T09:48:28.797Z,15.92
2023-04-08T09:53:36.285Z,14.77
2023-04-08T09:58:43.880Z,13.98
2023-04-08T10:03:52.030Z,13.49
2023-04-08T10:08:55.593Z,12.54
2023-04-08T10:13:58.196Z,12.39
2023-04-08T10:19:02.169Z,12.48
2023-04-08T10:24:08.562Z,12.94
2023-04-08T10:29:33.720Z,13.01
2023-04-08T10:34:53.806Z,13.21
2023-04-08T10:39:56.345Z,13.07
2023-04-08T10:45:03.285Z,13.58
2023-04-08T10:50:15.803Z,14.01
2023-04-08T10:55:24.516Z,15.12
2023-04-08T11:00:35.377Z,15.89
2023-04-08T11:05:40.210Z,15.24
2023-04-08T11:10:45.020Z,14.20
2023-04-08T11:15:47.734Z,14.00
2023-04-08T11:20:53.788Z,14.01
2023-04-08T11:25:56.990Z,15.14
2023-04-08T11:31:00.510Z,15.72
2023-04-08T11:36:05.275Z,15.49
2023-04-08T11:41:07.982Z,15.73
2023-04-08T11:46:11.697Z,16.27
2023-04-08T11:51:17.343Z,16.42
2023-04-08T11:56:22.564Z,16.59
2023-04-08T12:01:25.754Z,16.85
2023-04-08T12:06:31.691Z,16.28
2023-04-08T12:11:34.395Z,15.83
2023-04-08T12:16:37.503Z,16.32
2023-04-08T12:21:41.511Z,15.90
2023-04-08T12:26:44.060Z,15.12
2023-04-08T12:31:46.665Z,15.04
2023-04-08T12:36:50.684Z,14.33
2023-04-08T12:41:53.297Z,13.91
2023-04-08T12:46:56.162Z,13.68
2023-04-08T12:52:00.129Z,14.16
2023-04-08T12:57:02.955Z,14.56
2023-04-08T13:02:05.812Z,15.75
2023-04-08T13:07:11.143Z,16.67
2023-04-08T13:12:14.464Z,15.96
2023-04-08T13:17:17.025Z,16.46
2023-04-08T13:22:21.080Z,16.56
2023-04-08T13:27:23.686Z,16.05
2023-04-08T13:32:26.286Z,15.70
2023-04-08T13:37:30.264Z,15.64
2023-04-08T13:42:33.015Z,16.04
2023-04-08T13:47:37.642Z,15.91
2023-04-08T13:52:42.103Z,15.03
2023-04-08T13:57:44.710Z,14.87
2023-04-08T14:02:47.418Z,14.66
2023-04-08T14:07:51.396Z,14.51
2023-04-08T14:12:54.382Z,14.28
2023-04-08T14:17:57.060Z,14.21
2023-04-08T14:23:01.030Z,14.25
2023-04-08T14:28:03.589Z,14.15
2023-04-08T14:33:06.434Z,13.82
2023-04-08T14:38:10.533Z,13.25
2023-04-08T14:43:13.620Z,13.57
2023-04-08T14:48:16.165Z,13.83
2023-04-08T14:53:20.085Z,13.88
2023-04-08T14:58:22.929Z,14.04
2023-04-08T15:03:25.710Z,14.12
2023-04-08T15:08:29.916Z,14.21
2023-04-08T15:13:32.529Z,13.86
2023-04-08T15:18:36.242Z,13.57
2023-04-08T15:23:42.021Z,13.36
2023-04-08T15:28:44.649Z,13.03
2023-04-08T15:33:48.749Z,12.96
2023-04-08T15:38:53.090Z,12.88
2023-04-08T15:43:56.171Z,12.80
2023-04-08T15:49:00.229Z,12.63
2023-04-08T15:54:05.375Z,12.51
2023-04-08T15:59:07.965Z,12.23
2023-04-08T16:04:10.802Z,12.20
2023-04-08T16:09:14.777Z,12.11
2023-04-08T16:14:17.384Z,11.76
2023-04-08T16:19:22.200Z,11.77
2023-04-08T16:24:26.446Z,11.67
2023-04-08T16:29:29.013Z,11.55
2023-04-08T16:34:31.863Z,11.45
2023-04-08T16:39:35.814Z,11.36
2023-04-08T16:44:38.419Z,11.17
2023-04-08T16:49:40.990Z,11.19
2023-04-08T16:54:46.101Z,11.15
2023-04-08T16:59:48.678Z,10.99
2023-04-08T17:04:52.369Z,10.84
2023-04-08T17:09:56.307Z,10.73
2023-04-08T17:14:59.045Z,10.71
2023-04-08T17:20:01.721Z,10.67
2023-04-08T17:25:06.614Z,10.53
2023-04-08T17:30:11.471Z,10.42
2023-04-08T17:35:14.323Z,10.22
2023-04-08T17:40:18.653Z,10.08
2023-04-08T17:45:21.356Z,9.92
2023-04-08T17:50:25.462Z,9.85
2023-04-08T17:55:29.617Z,9.75
2023-04-08T18:00:32.129Z,9.62
2023-04-08T18:05:34.681Z,9.54
2023-04-08T18:10:39.175Z,9.37
2023-04-08T18:15:42.078Z,9.23
2023-04-08T18:20:44.641Z,9.26
2023-04-08T18:25:50.092Z,9.13
2023-04-08T18:30:53.515Z,9.05
2023-04-08T18:35:57.071Z,8.98
2023-04-08T18:41:03.125Z,8.96
2023-04-08T18:46:05.849Z,8.97
2023-04-08T18:51:08.728Z,8.88
2023-04-08T18:56:17.281Z,8.88
2023-04-08T19:01:19.880Z,8.84
2023-04-08T19:06:22.807Z,8.89
2023-04-08T19:11:28.893Z,8.82
2023-04-08T19:16:31.542Z,8.81
2023-04-08T19:21:37.597Z,8.76
2023-04-08T19:26:41.606Z,8.77
2023-04-08T19:31:44.324Z,8.79
2023-04-08T19:36:47.838Z,8.71
2023-04-08T19:41:51.695Z,8.73
2023-04-08T19:46:54.660Z,8.72
2023-04-08T19:51:58.495Z,8.70
2023-04-08T19:57:02.546Z,8.72
2023-04-08T20:02:05.257Z,8.66
2023-04-08T20:07:08.066Z,8.65
2023-04-08T20:12:12.094Z,8.62
2023-04-08T20:17:15.466Z,8.63
2023-04-08T20:22:18.488Z,8.54
2023-04-08T20:27:22.441Z,8.60
2023-04-08T20:32:25.105Z,8.57
2023-04-08T20:37:28.635Z,8.60
2023-04-08T20:42:32.455Z,8.60
2023-04-08T20:47:35.134Z,8.60
2023-04-08T20:52:37.833Z,8.64
2023-04-08T20:57:44.254Z,8.63
2023-04-08T21:02:47.718Z,8.61
2023-04-08T21:07:50.531Z,8.61
2023-04-08T21:12:54.525Z,8.62
2023-04-08T21:17:57.199Z,8.63
2023-04-08T21:23:00.460Z,8.65
2023-04-08T21:28:04.434Z,8.67
2023-04-08T21:33:07.126Z,8.64
2023-04-08T21:38:09.760Z,8.64
2023-04-08T21:43:13.691Z,8.62
2023-04-08T21:48:17.213Z,8.61
2023-04-08T21:53:20.597Z,8.63
2023-04-08T21:58:24.560Z,8.63
2023-04-08T22:03:27.579Z,8.63
2023-04-08T22:08:32.378Z,8.58
2023-04-08T22:13:36.393Z,8.56
2023-04-08T22:18:39.026Z,8.56
2023-04-08T22:23:42.110Z,8.53
2023-04-08T22:28:46.012Z,8.50
2023-04-08T22:33:48.608Z,8.49
2023-04-08T22:38:51.184Z,8.46
2023-04-08T22:43:55.580Z,8.45
2023-04-08T22:48:58.145Z,8.42
2023-04-08T22:54:01.026Z,8.38
2023-04-08T22:59:04.918Z,8.40
2023-04-08T23:04:07.567Z,8.35
2023-04-08T23:09:10.263Z,8.29
2023-04-08T23:14:14.180Z,8.28
2023-04-08T23:19:16.762Z,8.32
2023-04-08T23:24:19.350Z,8.28
2023-04-08T23:29:23.374Z,8.30
2023-04-08T23:34:26.042Z,8.32
2023-04-08T23:39:30.829Z,8.29
2023-04-08T23:44:34.762Z,8.27
2023-04-08T23:49:37.325Z,8.28
2023-04-08T23:54:40.338Z,8.34
2023-04-08T23:59:44.256Z,8.34
